sensor_id;sensor_type;location;lat;lon;timestamp;temperature;humidity
18229;DHT22;9239;50.932;3.142;2023-04-25T00:01:22;8.90;99.90
18229;DHT22;9239;50.932;3.142;2023-04-25T00:03:49;8.90;99.90
18229;DHT22;9239;50.932;3.142;2023-04-25T00:06:16;8.90;99.90
18229;DHT22;9239;50.932;3.142;2023-04-25T00:08:44;8.90;99.90
18229;DHT22;9239;50.932;3.142;2023-04-25T00:11:11;8.90;99.90
18229;DHT22;9239;50.932;3.142;2023-04-25T00:13:38;8.80;99.90
18229;DHT22;9239;50.932;3.142;2023-04-25T00:16:07;8.80;99.90
18229;DHT22;9239;50.932;3.142;2023-04-25T00:18:35;8.80;99.90
18229;DHT22;9239;50.932;3.142;2023-04-25T00:21:02;8.80;99.90
18229;DHT22;9239;50.932;3.142;2023-04-25T00:23:31;8.80;99.90
18229;DHT22;9239;50.932;3.142;2023-04-25T00:25:58;8.80;99.90
18229;DHT22;9239;50.932;3.142;2023-04-25T00:28:25;8.80;99.90
18229;DHT22;9239;50.932;3.142;2023-04-25T00:30:52;8.70;99.90
18229;DHT22;9239;50.932;3.142;2023-04-25T00:33:19;8.70;99.90
18229;DHT22;9239;50.932;3.142;2023-04-25T00:35:48;8.60;99.90
18229;DHT22;9239;50.932;3.142;2023-04-25T00:38:15;8.50;99.90
18229;DHT22;9239;50.932;3.142;2023-04-25T00:40:42;8.50;99.90
18229;DHT22;9239;50.932;3.142;2023-04-25T00:43:09;8.40;99.90
18229;DHT22;9239;50.932;3.142;2023-04-25T00:45:38;8.30;99.90
18229;DHT22;9239;50.932;3.142;2023-04-25T00:48:05;8.30;99.90
18229;DHT22;9239;50.932;3.142;2023-04-25T00:50:33;8.30;99.90
18229;DHT22;9239;50.932;3.142;2023-04-25T00:53:02;8.20;99.90
18229;DHT22;9239;50.932;3.142;2023-04-25T00:55:29;8.20;99.90
18229;DHT22;9239;50.932;3.142;2023-04-25T00:57:57;8.20;99.90
18229;DHT22;9239;50.932;3.142;2023-04-25T01:00:24;8.30;99.90
18229;DHT22;9239;50.932;3.142;2023-04-25T01:02:51;8.30;99.90
18229;DHT22;9239;50.932;3.142;2023-04-25T01:05:18;8.30;99.90
18229;DHT22;9239;50.932;3.142;2023-04-25T01:07:45;8.30;99.90
18229;DHT22;9239;50.932;3.142;2023-04-25T01:10:14;8.20;99.90
18229;DHT22;9239;50.932;3.142;2023-04-25T01:12:41;8.10;99.90
18229;DHT22;9239;50.932;3.142;2023-04-25T01:15:08;8.10;99.90
18229;DHT22;9239;50.932;3.142;2023-04-25T01:17:36;7.90;99.90
18229;DHT22;9239;50.932;3.142;2023-04-25T01:20:04;7.90;99.90
18229;DHT22;9239;50.932;3.142;2023-04-25T01:22:34;7.80;99.90
18229;DHT22;9239;50.932;3.142;2023-04-25T01:25:01;7.60;99.90
18229;DHT22;9239;50.932;3.142;2023-04-25T01:27:29;7.70;99.90
18229;DHT22;9239;50.932;3.142;2023-04-25T01:29:56;7.70;99.90
18229;DHT22;9239;50.932;3.142;2023-04-25T01:32:24;7.60;99.90
18229;DHT22;9239;50.932;3.142;2023-04-25T01:34:51;7.60;99.90
18229;DHT22;9239;50.932;3.142;2023-04-25T01:37:18;7.60;99.90
18229;DHT22;9239;50.932;3.142;2023-04-25T01:39:47;7.70;99.90
18229;DHT22;9239;50.932;3.142;2023-04-25T01:42:14;7.70;99.90
18229;DHT22;9239;50.932;3.142;2023-04-25T01:44:41;7.70;99.90
18229;DHT22;9239;50.932;3.142;2023-04-25T01:47:08;7.70;99.90
18229;DHT22;9239;50.932;3.142;2023-04-25T01:49:35;7.80;99.90
18229;DHT22;9239;50.932;3.142;2023-04-25T01:52:02;7.70;99.90
18229;DHT22;9239;50.932;3.142;2023-04-25T01:54:29;7.70;99.90
18229;DHT22;9239;50.932;3.142;2023-04-25T01:56:58;7.70;99.90
18229;DHT22;9239;50.932;3.142;2023-04-25T01:59:26;7.70;99.90
18229;DHT22;9239;50.932;3.142;2023-04-25T02:01:53;7.70;99.90
18229;DHT22;9239;50.932;3.142;2023-04-25T02:04:20;7.70;99.90
18229;DHT22;9239;50.932;3.142;2023-04-25T02:06:46;7.60;99.90
18229;DHT22;9239;50.932;3.142;2023-04-25T02:09:13;7.60;99.90
18229;DHT22;9239;50.932;3.142;2023-04-25T02:11:40;7.60;99.90
18229;DHT22;9239;50.932;3.142;2023-04-25T02:14:09;7.60;99.90
18229;DHT22;9239;50.932;3.142;2023-04-25T02:16:35;7.50;99.90
18229;DHT22;9239;50.932;3.142;2023-04-25T02:19:02;7.50;99.90
18229;DHT22;9239;50.932;3.142;2023-04-25T02:21:29;7.40;99.90
18229;DHT22;9239;50.932;3.142;2023-04-25T02:23:57;7.40;99.90
18229;DHT22;9239;50.932;3.142;2023-04-25T02:26:24;7.40;99.90
18229;DHT22;9239;50.932;3.142;2023-04-25T02:28:51;7.40;99.90
18229;DHT22;9239;50.932;3.142;2023-04-25T02:31:19;7.30;99.90
18229;DHT22;9239;50.932;3.142;2023-04-25T02:33:47;7.40;99.90
18229;DHT22;9239;50.932;3.142;2023-04-25T02:36:14;7.40;99.90
18229;DHT22;9239;50.932;3.142;2023-04-25T02:38:41;7.40;99.90
18229;DHT22;9239;50.932;3.142;2023-04-25T02:41:08;7.40;99.90
18229;DHT22;9239;50.932;3.142;2023-04-25T02:43:35;7.50;99.90
18229;DHT22;9239;50.932;3.142;2023-04-25T02:46:02;7.50;99.90
18229;DHT22;9239;50.932;3.142;2023-04-25T02:48:31;7.60;99.90
18229;DHT22;9239;50.932;3.142;2023-04-25T02:50:58;7.60;99.90
18229;DHT22;9239;50.932;3.142;2023-04-25T02:53:25;7.60;99.90
18229;DHT22;9239;50.932;3.142;2023-04-25T02:55:52;7.70;99.90
18229;DHT22;9239;50.932;3.142;2023-04-25T02:58:19;7.70;99.90
18229;DHT22;9239;50.932;3.142;2023-04-25T03:00:46;7.70;99.90
18229;DHT22;9239;50.932;3.142;2023-04-25T03:03:13;7.70;99.90
18229;DHT22;9239;50.932;3.142;2023-04-25T03:05:44;7.70;99.90
18229;DHT22;9239;50.932;3.142;2023-04-25T03:08:12;7.80;99.90
18229;DHT22;9239;50.932;3.142;2023-04-25T03:10:39;7.70;99.90
18229;DHT22;9239;50.932;3.142;2023-04-25T03:13:06;7.70;99.90
18229;DHT22;9239;50.932;3.142;2023-04-25T03:15:34;7.70;99.90
18229;DHT22;9239;50.932;3.142;2023-04-25T03:18:02;7.80;99.90
18229;DHT22;9239;50.932;3.142;2023-04-25T03:20:29;7.80;99.90
18229;DHT22;9239;50.932;3.142;2023-04-25T03:22:57;7.70;99.90
18229;DHT22;9239;50.932;3.142;2023-04-25T03:25:24;7.70;99.90
18229;DHT22;9239;50.932;3.142;2023-04-25T03:27:51;7.70;99.90
18229;DHT22;9239;50.932;3.142;2023-04-25T03:30:18;7.70;99.90
18229;DHT22;9239;50.932;3.142;2023-04-25T03:32:45;7.60;99.90
18229;DHT22;9239;50.932;3.142;2023-04-25T03:35:12;7.50;99.90
18229;DHT22;9239;50.932;3.142;2023-04-25T03:37:39;7.50;99.90
18229;DHT22;9239;50.932;3.142;2023-04-25T03:40:12;7.40;99.90
18229;DHT22;9239;50.932;3.142;2023-04-25T03:42:39;7.30;99.90
18229;DHT22;9239;50.932;3.142;2023-04-25T03:45:07;7.30;99.90
18229;DHT22;9239;50.932;3.142;2023-04-25T03:47:34;7.30;99.90
18229;DHT22;9239;50.932;3.142;2023-04-25T03:50:01;7.30;99.90
18229;DHT22;9239;50.932;3.142;2023-04-25T03:52:28;7.40;99.90
18229;DHT22;9239;50.932;3.142;2023-04-25T03:54:55;7.40;99.90
18229;DHT22;9239;50.932;3.142;2023-04-25T03:57:23;7.50;99.90
18229;DHT22;9239;50.932;3.142;2023-04-25T03:59:50;7.50;99.90
18229;DHT22;9239;50.932;3.142;2023-04-25T04:02:18;7.50;99.90
18229;DHT22;9239;50.932;3.142;2023-04-25T04:04:44;7.50;99.90
18229;DHT22;9239;50.932;3.142;2023-04-25T04:07:11;7.50;99.90
18229;DHT22;9239;50.932;3.142;2023-04-25T04:09:38;7.50;99.90
18229;DHT22;9239;50.932;3.142;2023-04-25T04:12:06;7.40;99.90
18229;DHT22;9239;50.932;3.142;2023-04-25T04:14:34;7.40;99.90
18229;DHT22;9239;50.932;3.142;2023-04-25T04:17:01;7.30;99.90
18229;DHT22;9239;50.932;3.142;2023-04-25T04:19:28;7.30;99.90
18229;DHT22;9239;50.932;3.142;2023-04-25T04:21:55;7.30;99.90
18229;DHT22;9239;50.932;3.142;2023-04-25T04:24:22;7.30;99.90
18229;DHT22;9239;50.932;3.142;2023-04-25T04:26:49;7.30;99.90
18229;DHT22;9239;50.932;3.142;2023-04-25T04:29:17;7.30;99.90
18229;DHT22;9239;50.932;3.142;2023-04-25T04:31:49;7.20;99.90
18229;DHT22;9239;50.932;3.142;2023-04-25T04:34:16;7.20;99.90
18229;DHT22;9239;50.932;3.142;2023-04-25T04:36:43;7.20;99.90
18229;DHT22;9239;50.932;3.142;2023-04-25T04:39:11;7.10;99.90
18229;DHT22;9239;50.932;3.142;2023-04-25T04:41:38;7.10;99.90
18229;DHT22;9239;50.932;3.142;2023-04-25T04:44:06;7.10;99.90
18229;DHT22;9239;50.932;3.142;2023-04-25T04:46:34;7.00;99.90
18229;DHT22;9239;50.932;3.142;2023-04-25T04:49:05;7.00;99.90
18229;DHT22;9239;50.932;3.142;2023-04-25T04:51:32;7.00;99.90
18229;DHT22;9239;50.932;3.142;2023-04-25T04:53:59;7.10;99.90
18229;DHT22;9239;50.932;3.142;2023-04-25T04:56:28;7.10;99.90
18229;DHT22;9239;50.932;3.142;2023-04-25T04:58:56;7.10;99.90
18229;DHT22;9239;50.932;3.142;2023-04-25T05:01:23;7.10;99.90
18229;DHT22;9239;50.932;3.142;2023-04-25T05:03:51;7.10;99.90
18229;DHT22;9239;50.932;3.142;2023-04-25T05:06:19;7.10;99.90
18229;DHT22;9239;50.932;3.142;2023-04-25T05:08:46;7.20;99.90
18229;DHT22;9239;50.932;3.142;2023-04-25T05:11:14;7.10;99.90
18229;DHT22;9239;50.932;3.142;2023-04-25T05:13:41;7.10;99.90
18229;DHT22;9239;50.932;3.142;2023-04-25T05:16:08;7.20;99.90
18229;DHT22;9239;50.932;3.142;2023-04-25T05:18:35;7.20;99.90
18229;DHT22;9239;50.932;3.142;2023-04-25T05:21:02;7.30;99.90
18229;DHT22;9239;50.932;3.142;2023-04-25T05:23:31;7.40;99.90
18229;DHT22;9239;50.932;3.142;2023-04-25T05:25:58;7.50;99.90
18229;DHT22;9239;50.932;3.142;2023-04-25T05:28:25;7.50;99.90
18229;DHT22;9239;50.932;3.142;2023-04-25T05:30:52;7.50;99.90
18229;DHT22;9239;50.932;3.142;2023-04-25T05:33:19;7.60;99.90
18229;DHT22;9239;50.932;3.142;2023-04-25T05:35:46;7.60;99.90
18229;DHT22;9239;50.932;3.142;2023-04-25T05:38:13;7.60;99.90
18229;DHT22;9239;50.932;3.142;2023-04-25T05:40:42;7.70;99.90
18229;DHT22;9239;50.932;3.142;2023-04-25T05:43:09;7.80;99.90
18229;DHT22;9239;50.932;3.142;2023-04-25T05:45:35;7.80;99.90
18229;DHT22;9239;50.932;3.142;2023-04-25T05:48:03;8.20;99.90
18229;DHT22;9239;50.932;3.142;2023-04-25T05:50:30;8.60;99.90
18229;DHT22;9239;50.932;3.142;2023-04-25T05:52:57;8.80;99.90
18229;DHT22;9239;50.932;3.142;2023-04-25T05:55:24;8.70;99.90
18229;DHT22;9239;50.932;3.142;2023-04-25T05:57:52;8.60;99.90
18229;DHT22;9239;50.932;3.142;2023-04-25T06:00:19;8.50;99.90
18229;DHT22;9239;50.932;3.142;2023-04-25T06:02:48;8.30;99.90
18229;DHT22;9239;50.932;3.142;2023-04-25T06:05:15;8.20;99.90
18229;DHT22;9239;50.932;3.142;2023-04-25T06:07:42;8.20;99.90
18229;DHT22;9239;50.932;3.142;2023-04-25T06:10:10;8.20;99.90
18229;DHT22;9239;50.932;3.142;2023-04-25T06:12:37;8.10;99.90
18229;DHT22;9239;50.932;3.142;2023-04-25T06:15:07;8.10;99.90
18229;DHT22;9239;50.932;3.142;2023-04-25T06:17:34;8.00;99.90
18229;DHT22;9239;50.932;3.142;2023-04-25T06:20:01;7.90;99.90
18229;DHT22;9239;50.932;3.142;2023-04-25T06:22:28;7.90;99.90
18229;DHT22;9239;50.932;3.142;2023-04-25T06:24:55;7.80;99.90
18229;DHT22;9239;50.932;3.142;2023-04-25T06:27:24;7.70;99.90
18229;DHT22;9239;50.932;3.142;2023-04-25T06:29:51;7.60;99.90
18229;DHT22;9239;50.932;3.142;2023-04-25T06:32:20;7.70;99.90
18229;DHT22;9239;50.932;3.142;2023-04-25T06:34:47;7.70;99.90
18229;DHT22;9239;50.932;3.142;2023-04-25T06:37:13;7.80;99.90
18229;DHT22;9239;50.932;3.142;2023-04-25T06:39:40;7.90;99.90
18229;DHT22;9239;50.932;3.142;2023-04-25T06:42:07;8.00;99.90
18229;DHT22;9239;50.932;3.142;2023-04-25T06:44:35;8.10;99.90
18229;DHT22;9239;50.932;3.142;2023-04-25T06:47:02;8.20;99.90
18229;DHT22;9239;50.932;3.142;2023-04-25T06:49:30;8.40;99.90
18229;DHT22;9239;50.932;3.142;2023-04-25T06:51:57;8.60;99.90
18229;DHT22;9239;50.932;3.142;2023-04-25T06:54:25;8.70;99.90
18229;DHT22;9239;50.932;3.142;2023-04-25T06:56:52;8.70;99.90
18229;DHT22;9239;50.932;3.142;2023-04-25T06:59:19;8.70;99.90
18229;DHT22;9239;50.932;3.142;2023-04-25T07:01:46;8.60;99.90
18229;DHT22;9239;50.932;3.142;2023-04-25T07:04:13;8.40;99.90
18229;DHT22;9239;50.932;3.142;2023-04-25T07:06:42;8.30;99.90
18229;DHT22;9239;50.932;3.142;2023-04-25T07:09:09;8.40;99.90
18229;DHT22;9239;50.932;3.142;2023-04-25T07:11:36;8.50;99.90
18229;DHT22;9239;50.932;3.142;2023-04-25T07:14:03;8.60;99.90
18229;DHT22;9239;50.932;3.142;2023-04-25T07:16:30;8.80;99.90
18229;DHT22;9239;50.932;3.142;2023-04-25T07:18:57;9.00;99.90
18229;DHT22;9239;50.932;3.142;2023-04-25T07:21:25;9.00;99.90
18229;DHT22;9239;50.932;3.142;2023-04-25T07:23:53;9.00;99.90
18229;DHT22;9239;50.932;3.142;2023-04-25T07:26:20;9.00;99.90
18229;DHT22;9239;50.932;3.142;2023-04-25T07:28:47;9.10;99.90
18229;DHT22;9239;50.932;3.142;2023-04-25T07:31:16;9.20;99.90
18229;DHT22;9239;50.932;3.142;2023-04-25T07:33:44;9.30;99.90
18229;DHT22;9239;50.932;3.142;2023-04-25T07:36:11;9.30;99.90
18229;DHT22;9239;50.932;3.142;2023-04-25T07:38:38;9.20;99.90
18229;DHT22;9239;50.932;3.142;2023-04-25T07:41:07;9.30;99.90
18229;DHT22;9239;50.932;3.142;2023-04-25T07:43:34;9.40;99.90
18229;DHT22;9239;50.932;3.142;2023-04-25T07:46:01;9.50;99.90
18229;DHT22;9239;50.932;3.142;2023-04-25T07:48:28;9.60;99.90
18229;DHT22;9239;50.932;3.142;2023-04-25T07:50:55;9.90;99.90
18229;DHT22;9239;50.932;3.142;2023-04-25T07:53:22;10.00;99.90
18229;DHT22;9239;50.932;3.142;2023-04-25T07:55:49;9.90;99.90
18229;DHT22;9239;50.932;3.142;2023-04-25T07:58:18;9.60;99.90
18229;DHT22;9239;50.932;3.142;2023-04-25T08:00:47;9.20;99.90
18229;DHT22;9239;50.932;3.142;2023-04-25T08:03:14;8.90;99.90
18229;DHT22;9239;50.932;3.142;2023-04-25T08:05:41;8.70;99.90
18229;DHT22;9239;50.932;3.142;2023-04-25T08:08:08;8.60;99.90
18229;DHT22;9239;50.932;3.142;2023-04-25T08:10:36;8.60;99.90
18229;DHT22;9239;50.932;3.142;2023-04-25T08:13:03;8.60;99.90
18229;DHT22;9239;50.932;3.142;2023-04-25T08:15:31;8.60;99.90
18229;DHT22;9239;50.932;3.142;2023-04-25T08:17:58;8.70;99.90
18229;DHT22;9239;50.932;3.142;2023-04-25T08:20:25;8.70;99.90
18229;DHT22;9239;50.932;3.142;2023-04-25T08:22:52;8.90;99.90
18229;DHT22;9239;50.932;3.142;2023-04-25T08:25:19;9.20;99.90
18229;DHT22;9239;50.932;3.142;2023-04-25T08:27:46;9.50;99.90
18229;DHT22;9239;50.932;3.142;2023-04-25T08:30:13;9.80;99.90
18229;DHT22;9239;50.932;3.142;2023-04-25T08:32:41;10.10;99.90
18229;DHT22;9239;50.932;3.142;2023-04-25T08:35:09;10.10;99.90
18229;DHT22;9239;50.932;3.142;2023-04-25T08:37:35;9.90;99.90
18229;DHT22;9239;50.932;3.142;2023-04-25T08:40:04;9.70;99.90
18229;DHT22;9239;50.932;3.142;2023-04-25T08:42:33;9.70;99.90
18229;DHT22;9239;50.932;3.142;2023-04-25T08:45:02;9.50;99.90
18229;DHT22;9239;50.932;3.142;2023-04-25T08:47:30;9.40;99.90
18229;DHT22;9239;50.932;3.142;2023-04-25T08:50:02;9.40;99.90
18229;DHT22;9239;50.932;3.142;2023-04-25T08:52:35;9.20;99.90
18229;DHT22;9239;50.932;3.142;2023-04-25T08:55:03;9.20;99.90
18229;DHT22;9239;50.932;3.142;2023-04-25T08:57:31;9.30;99.90
18229;DHT22;9239;50.932;3.142;2023-04-25T09:00:01;9.40;99.90
18229;DHT22;9239;50.932;3.142;2023-04-25T09:02:29;9.50;99.90
18229;DHT22;9239;50.932;3.142;2023-04-25T09:04:56;9.50;99.90
18229;DHT22;9239;50.932;3.142;2023-04-25T09:07:25;9.30;99.90
18229;DHT22;9239;50.932;3.142;2023-04-25T09:09:52;9.10;99.90
18229;DHT22;9239;50.932;3.142;2023-04-25T09:12:19;9.10;99.90
18229;DHT22;9239;50.932;3.142;2023-04-25T09:15:05;9.00;99.90
18229;DHT22;9239;50.932;3.142;2023-04-25T09:17:32;9.20;99.90
18229;DHT22;9239;50.932;3.142;2023-04-25T09:20:09;9.40;99.90
18229;DHT22;9239;50.932;3.142;2023-04-25T09:22:38;9.70;99.90
18229;DHT22;9239;50.932;3.142;2023-04-25T09:25:08;9.80;99.90
18229;DHT22;9239;50.932;3.142;2023-04-25T09:27:36;9.90;99.90
18229;DHT22;9239;50.932;3.142;2023-04-25T09:30:03;10.00;99.90
18229;DHT22;9239;50.932;3.142;2023-04-25T09:32:30;10.10;99.90
18229;DHT22;9239;50.932;3.142;2023-04-25T09:34:58;10.20;99.90
18229;DHT22;9239;50.932;3.142;2023-04-25T09:37:26;10.30;99.90
18229;DHT22;9239;50.932;3.142;2023-04-25T09:39:56;10.30;99.90
18229;DHT22;9239;50.932;3.142;2023-04-25T09:42:25;10.30;99.90
18229;DHT22;9239;50.932;3.142;2023-04-25T09:44:53;10.20;99.90
18229;DHT22;9239;50.932;3.142;2023-04-25T09:47:20;10.20;99.90
18229;DHT22;9239;50.932;3.142;2023-04-25T09:49:49;10.20;99.90
18229;DHT22;9239;50.932;3.142;2023-04-25T09:52:18;10.30;99.90
18229;DHT22;9239;50.932;3.142;2023-04-25T09:54:46;10.40;99.90
18229;DHT22;9239;50.932;3.142;2023-04-25T09:57:17;10.50;99.90
18229;DHT22;9239;50.932;3.142;2023-04-25T09:59:45;10.70;99.90
18229;DHT22;9239;50.932;3.142;2023-04-25T10:02:14;10.90;99.90
18229;DHT22;9239;50.932;3.142;2023-04-25T10:04:41;10.80;99.90
18229;DHT22;9239;50.932;3.142;2023-04-25T10:07:09;10.70;99.90
18229;DHT22;9239;50.932;3.142;2023-04-25T10:09:37;10.60;99.90
18229;DHT22;9239;50.932;3.142;2023-04-25T10:12:05;10.60;99.90
18229;DHT22;9239;50.932;3.142;2023-04-25T10:14:34;10.50;99.90
18229;DHT22;9239;50.932;3.142;2023-04-25T10:17:01;10.60;99.90
18229;DHT22;9239;50.932;3.142;2023-04-25T10:19:29;10.70;99.90
18229;DHT22;9239;50.932;3.142;2023-04-25T10:22:04;10.90;99.90
18229;DHT22;9239;50.932;3.142;2023-04-25T10:24:32;10.90;99.90
18229;DHT22;9239;50.932;3.142;2023-04-25T10:27:00;11.10;99.90
18229;DHT22;9239;50.932;3.142;2023-04-25T10:29:28;11.10;99.90
18229;DHT22;9239;50.932;3.142;2023-04-25T10:31:57;11.00;99.90
18229;DHT22;9239;50.932;3.142;2023-04-25T10:34:24;10.70;99.90
18229;DHT22;9239;50.932;3.142;2023-04-25T10:37:03;10.50;99.90
18229;DHT22;9239;50.932;3.142;2023-04-25T10:39:32;10.40;99.90
18229;DHT22;9239;50.932;3.142;2023-04-25T10:42:02;10.30;99.90
18229;DHT22;9239;50.932;3.142;2023-04-25T10:44:30;10.40;99.90
18229;DHT22;9239;50.932;3.142;2023-04-25T10:46:59;10.70;99.90
18229;DHT22;9239;50.932;3.142;2023-04-25T10:49:34;10.60;99.90
18229;DHT22;9239;50.932;3.142;2023-04-25T10:52:25;10.50;99.90
18229;DHT22;9239;50.932;3.142;2023-04-25T10:54:54;10.60;99.90
18229;DHT22;9239;50.932;3.142;2023-04-25T10:57:32;10.50;99.90
18229;DHT22;9239;50.932;3.142;2023-04-25T11:00:10;10.50;99.90
18229;DHT22;9239;50.932;3.142;2023-04-25T11:02:41;10.50;99.90
18229;DHT22;9239;50.932;3.142;2023-04-25T11:05:10;10.60;99.90
18229;DHT22;9239;50.932;3.142;2023-04-25T11:07:50;10.70;99.90
18229;DHT22;9239;50.932;3.142;2023-04-25T11:10:18;10.80;99.90
18229;DHT22;9239;50.932;3.142;2023-04-25T11:12:46;11.00;99.90
18229;DHT22;9239;50.932;3.142;2023-04-25T11:15:13;11.20;99.90
18229;DHT22;9239;50.932;3.142;2023-04-25T11:17:42;11.50;99.90
18229;DHT22;9239;50.932;3.142;2023-04-25T11:20:12;11.50;99.90
18229;DHT22;9239;50.932;3.142;2023-04-25T11:22:40;11.40;99.90
18229;DHT22;9239;50.932;3.142;2023-04-25T11:25:08;10.90;99.90
18229;DHT22;9239;50.932;3.142;2023-04-25T11:27:38;11.00;99.90
18229;DHT22;9239;50.932;3.142;2023-04-25T11:30:13;11.30;99.90
18229;DHT22;9239;50.932;3.142;2023-04-25T11:32:42;11.50;99.90
18229;DHT22;9239;50.932;3.142;2023-04-25T11:35:10;11.50;99.90
18229;DHT22;9239;50.932;3.142;2023-04-25T11:37:39;11.40;99.90
18229;DHT22;9239;50.932;3.142;2023-04-25T11:40:07;11.20;99.90
18229;DHT22;9239;50.932;3.142;2023-04-25T11:42:36;11.10;99.90
18229;DHT22;9239;50.932;3.142;2023-04-25T11:45:04;11.10;99.90
18229;DHT22;9239;50.932;3.142;2023-04-25T11:47:32;11.10;99.90
18229;DHT22;9239;50.932;3.142;2023-04-25T11:50:02;11.20;99.90
18229;DHT22;9239;50.932;3.142;2023-04-25T11:52:39;11.20;99.90
18229;DHT22;9239;50.932;3.142;2023-04-25T11:55:08;11.00;99.90
18229;DHT22;9239;50.932;3.142;2023-04-25T11:57:35;10.90;99.90
18229;DHT22;9239;50.932;3.142;2023-04-25T12:00:10;10.80;99.90
18229;DHT22;9239;50.932;3.142;2023-04-25T12:02:41;10.80;99.90
18229;DHT22;9239;50.932;3.142;2023-04-25T12:05:10;10.90;99.90
18229;DHT22;9239;50.932;3.142;2023-04-25T12:07:37;10.90;99.90
18229;DHT22;9239;50.932;3.142;2023-04-25T12:10:06;10.80;99.90
18229;DHT22;9239;50.932;3.142;2023-04-25T12:12:34;10.80;99.90
18229;DHT22;9239;50.932;3.142;2023-04-25T12:15:13;10.60;99.90
18229;DHT22;9239;50.932;3.142;2023-04-25T12:17:42;10.40;99.90
18229;DHT22;9239;50.932;3.142;2023-04-25T12:20:13;10.40;99.90
18229;DHT22;9239;50.932;3.142;2023-04-25T12:22:41;10.60;99.90
18229;DHT22;9239;50.932;3.142;2023-04-25T12:25:11;10.60;99.90
18229;DHT22;9239;50.932;3.142;2023-04-25T12:27:38;10.60;99.90
18229;DHT22;9239;50.932;3.142;2023-04-25T12:30:08;10.60;99.90
18229;DHT22;9239;50.932;3.142;2023-04-25T12:32:36;10.70;99.90
18229;DHT22;9239;50.932;3.142;2023-04-25T12:35:04;10.60;99.90
18229;DHT22;9239;50.932;3.142;2023-04-25T12:37:33;10.60;99.90
18229;DHT22;9239;50.932;3.142;2023-04-25T12:40:00;10.40;99.90
18229;DHT22;9239;50.932;3.142;2023-04-25T12:42:28;10.40;99.90
18229;DHT22;9239;50.932;3.142;2023-04-25T12:44:55;10.50;99.90
18229;DHT22;9239;50.932;3.142;2023-04-25T12:47:22;10.70;99.90
18229;DHT22;9239;50.932;3.142;2023-04-25T12:49:49;10.90;99.90
18229;DHT22;9239;50.932;3.142;2023-04-25T12:52:16;10.80;99.90
18229;DHT22;9239;50.932;3.142;2023-04-25T12:54:44;10.50;99.90
18229;DHT22;9239;50.932;3.142;2023-04-25T12:57:11;10.60;99.90
18229;DHT22;9239;50.932;3.142;2023-04-25T12:59:38;10.60;99.90
18229;DHT22;9239;50.932;3.142;2023-04-25T13:02:05;10.50;99.90
18229;DHT22;9239;50.932;3.142;2023-04-25T13:04:32;10.70;99.90
18229;DHT22;9239;50.932;3.142;2023-04-25T13:06:59;10.90;99.90
18229;DHT22;9239;50.932;3.142;2023-04-25T13:09:26;11.10;99.90
18229;DHT22;9239;50.932;3.142;2023-04-25T13:11:54;11.20;99.90
18229;DHT22;9239;50.932;3.142;2023-04-25T13:14:23;11.40;99.90
18229;DHT22;9239;50.932;3.142;2023-04-25T13:16:50;11.50;99.90
18229;DHT22;9239;50.932;3.142;2023-04-25T13:19:17;11.60;99.90
18229;DHT22;9239;50.932;3.142;2023-04-25T13:21:44;11.70;99.90
18229;DHT22;9239;50.932;3.142;2023-04-25T13:24:11;11.20;99.90
18229;DHT22;9239;50.932;3.142;2023-04-25T13:26:38;11.20;99.90
18229;DHT22;9239;50.932;3.142;2023-04-25T13:29:06;11.20;99.90
18229;DHT22;9239;50.932;3.142;2023-04-25T13:31:33;11.20;99.90
18229;DHT22;9239;50.932;3.142;2023-04-25T13:34:00;11.30;99.90
18229;DHT22;9239;50.932;3.142;2023-04-25T13:36:27;11.40;99.90
18229;DHT22;9239;50.932;3.142;2023-04-25T13:38:54;11.40;99.90
18229;DHT22;9239;50.932;3.142;2023-04-25T13:41:21;11.30;99.90
18229;DHT22;9239;50.932;3.142;2023-04-25T13:43:48;11.30;99.90
18229;DHT22;9239;50.932;3.142;2023-04-25T13:46:16;11.30;99.90
18229;DHT22;9239;50.932;3.142;2023-04-25T13:48:43;11.30;99.90
18229;DHT22;9239;50.932;3.142;2023-04-25T13:51:15;11.50;99.90
18229;DHT22;9239;50.932;3.142;2023-04-25T13:53:43;11.70;99.90
18229;DHT22;9239;50.932;3.142;2023-04-25T13:56:11;11.50;99.90
18229;DHT22;9239;50.932;3.142;2023-04-25T13:58:38;11.70;99.90
18229;DHT22;9239;50.932;3.142;2023-04-25T14:01:05;11.60;99.90
18229;DHT22;9239;50.932;3.142;2023-04-25T14:03:33;11.40;99.90
18229;DHT22;9239;50.932;3.142;2023-04-25T14:06:00;11.10;99.90
18229;DHT22;9239;50.932;3.142;2023-04-25T14:08:27;11.00;99.90
18229;DHT22;9239;50.932;3.142;2023-04-25T14:10:55;10.70;99.90
18229;DHT22;9239;50.932;3.142;2023-04-25T14:13:22;10.60;99.90
18229;DHT22;9239;50.932;3.142;2023-04-25T14:15:49;10.60;99.90
18229;DHT22;9239;50.932;3.142;2023-04-25T14:18:17;10.60;99.90
18229;DHT22;9239;50.932;3.142;2023-04-25T14:20:46;10.70;99.90
18229;DHT22;9239;50.932;3.142;2023-04-25T14:23:13;10.80;99.90
18229;DHT22;9239;50.932;3.142;2023-04-25T14:25:40;10.90;99.90
18229;DHT22;9239;50.932;3.142;2023-04-25T14:28:07;11.10;99.90
18229;DHT22;9239;50.932;3.142;2023-04-25T14:30:34;11.20;99.90
18229;DHT22;9239;50.932;3.142;2023-04-25T14:33:01;11.30;99.90
18229;DHT22;9239;50.932;3.142;2023-04-25T14:35:28;11.40;99.90
18229;DHT22;9239;50.932;3.142;2023-04-25T14:37:57;11.30;99.90
18229;DHT22;9239;50.932;3.142;2023-04-25T14:40:25;11.30;99.90
18229;DHT22;9239;50.932;3.142;2023-04-25T14:42:52;11.20;99.90
18229;DHT22;9239;50.932;3.142;2023-04-25T14:45:19;11.00;99.90
18229;DHT22;9239;50.932;3.142;2023-04-25T14:47:46;10.80;99.90
18229;DHT22;9239;50.932;3.142;2023-04-25T14:50:13;10.90;99.90
18229;DHT22;9239;50.932;3.142;2023-04-25T14:52:40;11.00;99.90
18229;DHT22;9239;50.932;3.142;2023-04-25T14:55:08;11.00;99.90
18229;DHT22;9239;50.932;3.142;2023-04-25T14:57:35;11.10;99.90
18229;DHT22;9239;50.932;3.142;2023-04-25T15:00:03;11.10;99.90
18229;DHT22;9239;50.932;3.142;2023-04-25T15:02:34;11.10;99.90
18229;DHT22;9239;50.932;3.142;2023-04-25T15:05:01;11.00;99.90
18229;DHT22;9239;50.932;3.142;2023-04-25T15:07:28;11.10;99.90
18229;DHT22;9239;50.932;3.142;2023-04-25T15:09:56;11.10;99.90
18229;DHT22;9239;50.932;3.142;2023-04-25T15:12:24;11.10;99.90
18229;DHT22;9239;50.932;3.142;2023-04-25T15:14:53;11.10;99.90
18229;DHT22;9239;50.932;3.142;2023-04-25T15:17:21;11.00;99.90
18229;DHT22;9239;50.932;3.142;2023-04-25T15:19:48;10.80;99.90
18229;DHT22;9239;50.932;3.142;2023-04-25T15:22:15;10.80;99.90
18229;DHT22;9239;50.932;3.142;2023-04-25T15:24:42;10.70;99.90
18229;DHT22;9239;50.932;3.142;2023-04-25T15:27:09;10.90;99.90
18229;DHT22;9239;50.932;3.142;2023-04-25T15:29:37;10.70;99.90
18229;DHT22;9239;50.932;3.142;2023-04-25T15:32:05;10.50;99.90
18229;DHT22;9239;50.932;3.142;2023-04-25T15:34:32;10.50;99.90
18229;DHT22;9239;50.932;3.142;2023-04-25T15:36:59;10.40;99.90
18229;DHT22;9239;50.932;3.142;2023-04-25T15:39:26;10.40;99.90
18229;DHT22;9239;50.932;3.142;2023-04-25T15:41:53;10.40;99.90
18229;DHT22;9239;50.932;3.142;2023-04-25T15:44:20;10.30;99.90
18229;DHT22;9239;50.932;3.142;2023-04-25T15:46:49;10.40;99.90
18229;DHT22;9239;50.932;3.142;2023-04-25T15:49:16;10.60;99.90
18229;DHT22;9239;50.932;3.142;2023-04-25T15:51:44;10.90;99.90
18229;DHT22;9239;50.932;3.142;2023-04-25T15:54:11;11.20;99.90
18229;DHT22;9239;50.932;3.142;2023-04-25T15:56:38;11.40;99.90
18229;DHT22;9239;50.932;3.142;2023-04-25T15:59:05;11.40;99.90